Time;durP1;ratioP1;P1;durP2;ratioP2;P2;SDS_P1;SDS_P2;PMS_P1;PMS_P2;Temp;Humidity;BMP_temperature;BMP_pressure;BME280_temperature;BME280_humidity;BME280_pressure;Samples;Min_cycle;Max_cycle;Signal;HPM_P1;HPM_P2
2021/03/12 00:01:40;;;;;;;16.63;3.05;;;5.70;99.50;;;;;;8130906;28;20059;-70
2021/03/12 00:05:54;;;;;;;19.65;2.20;;;5.70;99.40;;;;;;8136924;28;20054;-70
2021/03/12 00:09:59;;;;;;;9.27;1.52;;;6.40;99.40;;;;;;8118611;28;20337;-70
2021/03/12 00:14:03;;;;;;;8.20;1.83;;;5.70;99.20;;;;;;8133847;28;20215;-70
2021/03/12 00:18:07;;;;;;;15.15;2.60;;;5.70;99.20;;;;;;8147537;28;20059;-70
2021/03/12 00:22:15;;;;;;;22.52;3.22;;;5.50;99.20;;;;;;8118366;28;20055;-70
2021/03/12 00:26:22;;;;;;;23.48;3.40;;;5.30;99.30;;;;;;8135286;28;20058;-69
2021/03/12 00:30:27;;;;;;;26.20;3.33;;;5.60;99.70;;;;;;8135078;28;20087;-69
2021/03/12 00:34:31;;;;;;;37.28;4.30;;;5.80;99.90;;;;;;8145110;28;20078;-70
2021/03/12 00:38:38;;;;;;;19.60;3.20;;;5.60;99.90;;;;;;8130157;28;20514;-69
2021/03/12 00:42:46;;;;;;;25.83;4.03;;;5.60;99.90;;;;;;8134295;28;20044;-69
2021/03/12 00:46:52;;;;;;;28.92;3.88;;;5.60;99.90;;;;;;8130105;28;20525;-70
2021/03/12 00:50:59;;;;;;;21.48;2.50;;;5.60;99.80;;;;;;8131280;28;20138;-69
2021/03/12 00:55:23;;;;;;;24.40;3.45;;;5.50;99.90;;;;;;8139824;28;20529;-70
2021/03/12 00:59:29;;;;;;;20.42;3.28;;;5.60;99.70;;;;;;8129198;28;20052;-70
2021/03/12 01:03:34;;;;;;;21.73;3.08;;;5.60;99.80;;;;;;8134297;29;20051;-70
2021/03/12 01:07:44;;;;;;;31.92;4.85;;;5.60;99.90;;;;;;8114064;28;20052;-70
2021/03/12 01:11:55;;;;;;;22.05;2.72;;;5.60;99.90;;;;;;8115950;29;20159;-69
2021/03/12 01:15:59;;;;;;;16.55;4.03;;;6.40;99.90;;;;;;8123848;28;20062;-69
2021/03/12 01:20:11;;;;;;;25.98;3.63;;;6.00;99.90;;;;;;8134606;28;20049;-68
2021/03/12 01:24:16;;;;;;;15.35;2.50;;;5.50;99.80;;;;;;8116679;28;20097;-69
2021/03/12 01:28:28;;;;;;;15.35;2.28;;;5.60;99.90;;;;;;8147587;28;20469;-69
2021/03/12 01:32:35;;;;;;;19.52;2.58;;;5.50;99.90;;;;;;8148135;28;20391;-69
2021/03/12 01:36:45;;;;;;;30.63;3.20;;;5.50;99.80;;;;;;8142476;29;20062;-70
2021/03/12 01:40:53;;;;;;;33.58;5.18;;;5.10;99.90;;;;;;8128059;28;20055;-70
2021/03/12 01:45:04;;;;;;;16.08;3.60;;;5.50;99.90;;;;;;8135797;28;20429;-68
2021/03/12 01:49:09;;;;;;;27.67;3.38;;;5.40;99.90;;;;;;8136810;28;20130;-70
2021/03/12 01:53:14;;;;;;;22.48;2.85;;;5.50;99.90;;;;;;8123261;28;20048;-70
2021/03/12 01:57:19;;;;;;;20.90;2.55;;;5.40;99.90;;;;;;8131330;28;20540;-70
2021/03/12 02:01:39;;;;;;;20.83;3.10;;;5.40;99.90;;;;;;8152125;28;20522;-69
2021/03/12 02:05:52;;;;;;;18.90;2.95;;;5.40;99.90;;;;;;8124634;28;20090;-70
2021/03/12 02:09:57;;;;;;;25.92;3.40;;;5.40;99.90;;;;;;8155004;28;20048;-70
2021/03/12 02:14:17;;;;;;;27.50;3.30;;;5.40;99.90;;;;;;8118867;28;20115;-70
2021/03/12 02:18:48;;;;;;;22.33;3.65;;;5.50;99.90;;;;;;8146696;28;20047;-69
2021/03/12 02:23:09;;;;;;;28.67;2.97;;;5.50;99.90;;;;;;8145671;28;20056;-69
2021/03/12 02:27:16;;;;;;;29.42;3.28;;;5.50;99.90;;;;;;8140728;28;20568;-69
2021/03/12 02:31:26;;;;;;;19.77;2.97;;;5.50;99.90;;;;;;8148798;28;20138;-70
2021/03/12 02:35:32;;;;;;;28.05;4.30;;;5.40;99.90;;;;;;8137313;28;20062;-70
2021/03/12 02:39:57;;;;;;;31.17;4.28;;;5.40;99.90;;;;;;8138883;28;20519;-69
2021/03/12 02:44:09;;;;;;;35.53;5.65;;;5.50;99.90;;;;;;8129306;28;20044;-70
2021/03/12 02:48:24;;;;;;;34.90;4.57;;;5.50;99.90;;;;;;8120550;28;20055;-70
2021/03/12 02:52:34;;;;;;;37.10;4.85;;;5.40;99.90;;;;;;8138089;28;20060;-70
2021/03/12 02:56:44;;;;;;;34.45;5.07;;;5.50;99.90;;;;;;8136329;28;20147;-70
2021/03/12 03:00:53;;;;;;;29.73;3.55;;;5.50;99.90;;;;;;8124350;28;21270;-70
2021/03/12 03:05:06;;;;;;;32.88;3.78;;;5.60;99.90;;;;;;8156258;28;20054;-69
2021/03/12 03:09:17;;;;;;;31.02;4.00;;;5.50;99.90;;;;;;8140605;29;20047;-70
2021/03/12 03:13:21;;;;;;;23.52;3.83;;;5.50;99.90;;;;;;8135850;28;20052;-69
2021/03/12 03:17:28;;;;;;;32.90;4.95;;;5.50;99.90;;;;;;8139336;28;20059;-69
2021/03/12 03:21:36;;;;;;;31.00;4.45;;;5.60;99.90;;;;;;8120166;28;20043;-69
2021/03/12 03:25:43;;;;;;;35.30;4.70;;;5.60;99.90;;;;;;8144517;28;20074;-69
2021/03/12 03:29:58;;;;;;;26.73;4.35;;;5.60;99.90;;;;;;8122561;28;20087;-69
2021/03/12 03:34:03;;;;;;;31.27;4.35;;;5.60;99.90;;;;;;8136266;28;20430;-69
2021/03/12 03:38:07;;;;;;;27.60;3.05;;;5.60;99.90;;;;;;8137597;28;20087;-69
2021/03/12 03:42:16;;;;;;;31.75;4.65;;;5.50;99.90;;;;;;8133383;28;20414;-70
2021/03/12 03:46:22;;;;;;;35.67;4.97;;;5.60;99.90;;;;;;8126805;29;20044;-70
2021/03/12 03:50:30;;;;;;;29.55;4.78;;;5.60;99.90;;;;;;8134128;28;20047;-70
2021/03/12 03:54:38;;;;;;;37.38;4.22;;;5.50;99.90;;;;;;8134883;28;20090;-70
2021/03/12 03:58:48;;;;;;;22.50;4.10;;;5.50;99.90;;;;;;8147180;28;20111;-70
2021/03/12 04:02:54;;;;;;;31.63;4.55;;;5.50;99.90;;;;;;8137116;29;20071;-69
2021/03/12 04:07:00;;;;;;;29.48;4.22;;;5.50;99.90;;;;;;8145949;28;20857;-70
2021/03/12 04:11:07;;;;;;;14.70;2.42;;;4.80;99.90;;;;;;8141945;28;20040;-69
2021/03/12 04:15:13;;;;;;;29.35;4.38;;;5.40;99.90;;;;;;8135639;28;20043;-70
2021/03/12 04:19:20;;;;;;;20.38;3.17;;;5.40;99.90;;;;;;8135271;28;20604;-70
2021/03/12 04:23:26;;;;;;;22.05;4.05;;;5.40;99.90;;;;;;8153349;28;20161;-69
2021/03/12 04:27:32;;;;;;;29.35;4.78;;;5.40;99.90;;;;;;8133590;28;20628;-69
2021/03/12 04:31:37;;;;;;;28.67;4.15;;;5.40;99.90;;;;;;8133897;28;20142;-69
2021/03/12 04:35:43;;;;;;;31.70;4.25;;;5.40;99.90;;;;;;8132356;28;20059;-69
2021/03/12 04:39:51;;;;;;;28.52;4.15;;;5.40;99.80;;;;;;8137177;28;20597;-69
2021/03/12 04:43:56;;;;;;;28.92;3.88;;;5.40;99.80;;;;;;8140841;28;20056;-69
2021/03/12 04:48:00;;;;;;;35.58;5.05;;;5.40;99.80;;;;;;8127773;28;20122;-69
2021/03/12 04:52:06;;;;;;;35.83;6.45;;;5.30;99.90;;;;;;8135714;28;20063;-69
2021/03/12 04:56:13;;;;;;;30.55;5.22;;;5.30;99.90;;;;;;8119204;28;20537;-70
2021/03/12 05:00:20;;;;;;;31.48;4.72;;;5.30;99.90;;;;;;8113843;28;20051;-69
2021/03/12 05:04:49;;;;;;;29.58;3.67;;;5.30;99.90;;;;;;8138698;28;20352;-70
2021/03/12 05:08:56;;;;;;;28.33;4.97;;;5.30;99.90;;;;;;8132541;28;20063;-70
2021/03/12 05:13:07;;;;;;;35.80;5.60;;;5.30;99.90;;;;;;8134391;29;20547;-70
2021/03/12 05:17:19;;;;;;;28.42;3.97;;;5.30;99.90;;;;;;8129900;28;20150;-69
2021/03/12 05:21:26;;;;;;;26.17;4.60;;;5.30;99.90;;;;;;8135853;28;20756;-70
2021/03/12 05:25:31;;;;;;;31.02;4.28;;;5.30;99.90;;;;;;8127228;28;20083;-71
2021/03/12 05:29:37;;;;;;;31.58;4.53;;;5.30;99.90;;;;;;8131125;28;20052;-71
2021/03/12 05:33:44;;;;;;;20.88;4.38;;;5.30;99.90;;;;;;8099885;28;20079;-71
2021/03/12 05:37:52;;;;;;;25.52;3.13;;;5.30;99.90;;;;;;8131329;28;20059;-71
2021/03/12 05:42:02;;;;;;;27.20;3.90;;;5.30;99.90;;;;;;8133740;28;20603;-71
2021/03/12 05:46:14;;;;;;;21.48;3.05;;;5.30;99.90;;;;;;8141654;28;20044;-70
2021/03/12 05:50:20;;;;;;;32.38;4.10;;;5.30;99.90;;;;;;8115264;28;20593;-71
2021/03/12 05:54:25;;;;;;;25.30;3.95;;;5.30;99.90;;;;;;8130236;28;20090;-71
2021/03/12 05:58:33;;;;;;;31.40;4.55;;;5.30;99.90;;;;;;8144919;28;20051;-70
2021/03/12 06:02:38;;;;;;;25.40;3.63;;;5.30;99.90;;;;;;8148372;28;20040;-70
2021/03/12 06:06:43;;;;;;;34.97;4.35;;;5.30;99.90;;;;;;8141484;28;20055;-68
2021/03/12 06:10:51;;;;;;;30.92;4.85;;;5.20;99.90;;;;;;8128479;28;20131;-69
2021/03/12 06:15:05;;;;;;;33.17;4.20;;;5.20;99.90;;;;;;8132359;28;20063;-70
2021/03/12 06:19:17;;;;;;;33.20;4.93;;;5.20;99.90;;;;;;8131903;28;20059;-70
2021/03/12 06:23:33;;;;;;;34.58;5.32;;;5.10;99.90;;;;;;8130542;28;20896;-70
2021/03/12 06:27:56;;;;;;;33.38;5.05;;;5.20;99.90;;;;;;8135559;28;20069;-70
2021/03/12 06:32:15;;;;;;;22.10;4.40;;;5.20;99.90;;;;;;8131657;28;20122;-70
2021/03/12 06:36:40;;;;;;;28.88;4.85;;;5.20;99.90;;;;;;8134240;29;20115;-70
2021/03/12 06:40:51;;;;;;;35.72;5.07;;;5.20;99.90;;;;;;8135503;28;20047;-70
2021/03/12 06:45:08;;;;;;;27.38;4.20;;;5.20;99.90;;;;;;8138371;28;20055;-70
2021/03/12 06:49:15;;;;;;;34.67;5.22;;;5.20;99.90;;;;;;8126757;29;20058;-70
2021/03/12 06:54:06;;;;;;;29.20;4.85;;;5.20;99.90;;;;;;8126345;28;20118;-70
2021/03/12 06:58:22;;;;;;;29.48;4.72;;;5.80;99.90;;;;;;8136986;29;20605;-70
2021/03/12 07:02:36;;;;;;;24.25;4.07;;;5.20;99.90;;;;;;8120441;28;20063;-70
2021/03/12 07:06:49;;;;;;;29.67;4.07;;;5.30;99.90;;;;;;8118965;29;21960;-70
2021/03/12 07:11:00;;;;;;;17.35;3.08;;;5.30;99.90;;;;;;8118954;28;20071;-71
2021/03/12 07:15:18;;;;;;;34.38;5.30;;;5.30;99.90;;;;;;8111289;28;20058;-70
2021/03/12 07:19:45;;;;;;;24.67;5.05;;;5.30;99.90;;;;;;8143745;28;20514;-70
2021/03/12 07:23:56;;;;;;;36.38;5.00;;;5.30;99.90;;;;;;8136905;28;20043;-69
2021/03/12 07:28:04;;;;;;;31.17;4.28;;;5.30;99.90;;;;;;8137159;28;20043;-68
2021/03/12 07:32:25;;;;;;;25.92;4.68;;;5.40;99.90;;;;;;8136514;28;20051;-64
2021/03/12 07:36:34;;;;;;;28.83;5.85;;;5.40;99.90;;;;;;8138621;28;21006;-64
2021/03/12 07:40:42;;;;;;;32.45;4.22;;;5.40;99.90;;;;;;8144161;28;20058;-64
2021/03/12 07:44:56;;;;;;;24.52;3.80;;;5.40;99.90;;;;;;8128261;28;20057;-63
2021/03/12 07:49:27;;;;;;;28.55;4.10;;;5.40;99.80;;;;;;8134077;28;20051;-64
2021/03/12 07:53:57;;;;;;;25.77;3.75;;;5.50;99.90;;;;;;8137419;28;20095;-64
2021/03/12 07:58:09;;;;;;;25.33;4.28;;;5.50;99.80;;;;;;8137139;28;20051;-64
2021/03/12 08:02:57;;;;;;;39.45;4.93;;;5.60;99.90;;;;;;8147405;28;20082;-65
2021/03/12 08:07:16;;;;;;;24.70;3.75;;;5.60;99.50;;;;;;8142898;28;20079;-64
2021/03/12 08:11:44;;;;;;;40.25;4.68;;;5.60;99.60;;;;;;8135127;28;20506;-64
2021/03/12 08:16:07;;;;;;;25.27;3.45;;;5.70;99.60;;;;;;8135353;28;20039;-64
2021/03/12 08:20:29;;;;;;;26.58;4.35;;;5.70;99.90;;;;;;8135036;28;20170;-64
2021/03/12 08:25:03;;;;;;;30.40;5.38;;;5.70;99.60;;;;;;8134672;28;20048;-64
2021/03/12 08:29:31;;;;;;;17.73;2.88;;;5.80;99.60;;;;;;8118892;28;20063;-64
2021/03/12 08:33:37;;;;;;;17.10;3.08;;;5.80;99.40;;;;;;8147060;28;20178;-64
2021/03/12 08:38:26;;;;;;;31.55;3.72;;;5.90;99.40;;;;;;8143781;28;20141;-64
2021/03/12 08:43:10;;;;;;;26.42;4.57;;;5.90;99.40;;;;;;8138356;28;20063;-64
2021/03/12 08:47:36;;;;;;;26.60;2.95;;;6.00;99.70;;;;;;8130734;28;20135;-64
2021/03/12 08:51:41;;;;;;;16.02;2.90;;;6.10;99.20;;;;;;8110617;28;20052;-64
2021/03/12 08:56:00;;;;;;;27.83;4.57;;;6.00;99.30;;;;;;8115114;28;20546;-65
2021/03/12 09:00:15;;;;;;;19.08;3.33;;;6.10;99.30;;;;;;8133975;28;20051;-64
2021/03/12 09:04:39;;;;;;;24.92;3.65;;;6.10;99.30;;;;;;8135733;28;20066;-64
2021/03/12 09:09:01;;;;;;;21.70;3.40;;;6.10;99.30;;;;;;8127924;28;20056;-64
2021/03/12 09:13:29;;;;;;;22.42;2.53;;;6.60;99.60;;;;;;8134602;28;20050;-64
2021/03/12 09:17:37;;;;;;;23.80;3.63;;;6.10;99.30;;;;;;8116714;28;20122;-64
2021/03/12 09:21:55;;;;;;;25.92;3.40;;;6.10;99.20;;;;;;8132714;28;20126;-64
2021/03/12 09:26:09;;;;;;;16.27;2.30;;;6.10;99.10;;;;;;8113924;28;20060;-64
2021/03/12 09:30:29;;;;;;;25.67;3.78;;;6.20;99.00;;;;;;8126695;28;20142;-64
2021/03/12 09:34:44;;;;;;;22.00;3.50;;;6.20;98.90;;;;;;8135654;28;20476;-64
2021/03/12 09:39:03;;;;;;;31.00;4.15;;;6.20;98.80;;;;;;8130430;28;20063;-64
2021/03/12 09:43:14;;;;;;;21.65;3.10;;;6.20;98.70;;;;;;8111725;29;20052;-64
2021/03/12 09:47:34;;;;;;;22.77;3.90;;;6.30;98.90;;;;;;8130062;28;20295;-66
2021/03/12 09:51:47;;;;;;;15.38;3.10;;;5.80;98.50;;;;;;8115686;28;20056;-66
2021/03/12 09:55:53;;;;;;;22.17;3.53;;;6.40;98.60;;;;;;8139815;28;20524;-65
2021/03/12 10:00:06;;;;;;;15.65;3.40;;;6.40;98.60;;;;;;8133441;29;20044;-64
2021/03/12 10:04:29;;;;;;;18.73;3.72;;;6.30;98.40;;;;;;8131505;28;20074;-64
2021/03/12 10:09:09;;;;;;;28.35;3.92;;;6.30;98.30;;;;;;8136712;28;20608;-64
2021/03/12 10:13:35;;;;;;;34.63;4.25;;;6.30;98.50;;;;;;8136418;28;20489;-65
2021/03/12 10:17:52;;;;;;;25.25;4.03;;;6.30;98.60;;;;;;8137957;28;20146;-64
2021/03/12 10:21:58;;;;;;;27.20;3.55;;;6.30;98.50;;;;;;8147593;28;20075;-65
2021/03/12 10:26:08;;;;;;;23.25;3.88;;;6.30;98.70;;;;;;8137308;28;20035;-64
2021/03/12 10:30:15;;;;;;;24.42;4.10;;;6.30;98.60;;;;;;8140288;28;20078;-64
2021/03/12 10:34:56;;;;;;;23.38;3.83;;;6.40;98.70;;;;;;8137763;28;20099;-65
2021/03/12 10:39:02;;;;;;;20.95;3.58;;;6.30;98.50;;;;;;8121396;28;20108;-65
2021/03/12 10:43:18;;;;;;;28.88;3.55;;;6.40;98.70;;;;;;8148460;28;20048;-65
2021/03/12 10:47:20;;;;;;;12.43;2.35;;;6.70;98.50;;;;;;8139280;28;20115;-65
2021/03/12 10:51:39;;;;;;;25.50;4.30;;;6.60;98.50;;;;;;8121427;28;20374;-65
2021/03/12 10:55:49;;;;;;;17.25;2.05;;;6.70;98.10;;;;;;8118590;28;20035;-64
2021/03/12 10:59:55;;;;;;;22.10;3.97;;;6.80;98.20;;;;;;8132938;28;20047;-64
2021/03/12 11:04:13;;;;;;;12.85;2.42;;;6.90;97.90;;;;;;8145168;28;20055;-64
2021/03/12 11:08:21;;;;;;;18.40;3.10;;;7.00;97.60;;;;;;8139846;28;20068;-65
2021/03/12 11:12:34;;;;;;;13.02;2.03;;;7.10;97.40;;;;;;8136601;28;20085;-64
2021/03/12 11:16:42;;;;;;;19.92;3.03;;;7.10;97.00;;;;;;8131942;28;20544;-64
2021/03/12 11:20:48;;;;;;;21.40;4.30;;;7.20;97.20;;;;;;8134988;28;20107;-65
2021/03/12 11:24:51;;;;;;;16.13;3.33;;;7.20;97.10;;;;;;8142000;28;20056;-64
2021/03/12 11:28:56;;;;;;;19.17;4.18;;;7.10;96.90;;;;;;8133078;28;20459;-65
2021/03/12 11:33:03;;;;;;;29.42;4.15;;;7.10;97.20;;;;;;8130943;28;20541;-65
2021/03/12 11:37:12;;;;;;;15.00;2.70;;;7.10;97.20;;;;;;8136083;28;20158;-65
2021/03/12 11:41:17;;;;;;;19.13;3.30;;;7.10;97.50;;;;;;8134124;28;20060;-65
2021/03/12 11:45:24;;;;;;;29.10;3.97;;;7.10;97.50;;;;;;8161025;28;20052;-65
2021/03/12 11:49:30;;;;;;;27.20;3.47;;;7.10;97.40;;;;;;8131037;28;20056;-64
2021/03/12 11:53:35;;;;;;;25.70;4.75;;;7.10;97.70;;;;;;8114626;28;20862;-65
2021/03/12 11:57:39;;;;;;;22.13;3.25;;;7.10;97.80;;;;;;8130388;28;20051;-64
2021/03/12 12:01:46;;;;;;;21.15;3.78;;;7.10;97.60;;;;;;8128453;28;20088;-66
2021/03/12 12:05:51;;;;;;;29.50;4.03;;;7.10;97.70;;;;;;8145445;28;20146;-64
2021/03/12 12:10:00;;;;;;;29.00;4.07;;;7.00;98.10;;;;;;8129242;29;20056;-65
2021/03/12 12:14:06;;;;;;;39.50;5.72;;;7.00;98.30;;;;;;8121716;28;20083;-65
2021/03/12 12:18:11;;;;;;;41.53;8.68;;;7.10;98.30;;;;;;8130408;28;20070;-65
2021/03/12 12:22:34;;;;;;;27.08;4.85;;;7.10;98.10;;;;;;8113349;28;20598;-65
2021/03/12 12:26:38;;;;;;;23.85;4.40;;;7.00;98.10;;;;;;8138961;28;20078;-65
2021/03/12 12:30:43;;;;;;;33.70;7.63;;;7.00;98.60;;;;;;8112900;28;20051;-65
2021/03/12 12:34:50;;;;;;;22.20;4.95;;;6.90;98.60;;;;;;8126365;28;20055;-65
2021/03/12 12:38:57;;;;;;;23.40;4.40;;;6.90;98.90;;;;;;8126803;28;20052;-65
2021/03/12 12:43:02;;;;;;;24.60;4.15;;;6.90;99.10;;;;;;8140134;28;20063;-65
2021/03/12 12:47:06;;;;;;;20.52;3.78;;;6.90;99.40;;;;;;8124273;28;20403;-65
2021/03/12 12:51:21;;;;;;;29.88;5.20;;;6.90;99.40;;;;;;8127256;28;20052;-64
2021/03/12 12:55:25;;;;;;;22.38;3.80;;;6.80;99.40;;;;;;8128837;28;20039;-63
2021/03/12 12:59:32;;;;;;;24.52;4.32;;;6.80;99.20;;;;;;8128032;28;20506;-64
2021/03/12 13:03:38;;;;;;;29.50;4.70;;;7.50;99.70;;;;;;8138449;28;20142;-64
2021/03/12 13:07:47;;;;;;;28.85;6.00;;;6.60;99.70;;;;;;8129925;28;20063;-64
2021/03/12 13:11:52;;;;;;;22.50;3.58;;;6.60;99.60;;;;;;8123120;28;20055;-64
2021/03/12 13:15:57;;;;;;;22.17;3.50;;;6.60;99.80;;;;;;8121566;28;20043;-64
2021/03/12 13:20:05;;;;;;;16.67;2.58;;;6.50;99.70;;;;;;8128891;28;20306;-64
2021/03/12 13:24:14;;;;;;;16.92;4.13;;;6.50;99.50;;;;;;8123131;28;20047;-64
2021/03/12 13:28:21;;;;;;;19.40;3.70;;;6.50;99.40;;;;;;8128547;28;20138;-65
2021/03/12 13:32:25;;;;;;;18.65;3.42;;;6.40;99.50;;;;;;8108616;28;20054;-65
2021/03/12 13:36:29;;;;;;;16.92;2.85;;;6.50;99.40;;;;;;8131331;28;20047;-65
2021/03/12 13:40:37;;;;;;;13.90;2.13;;;6.40;99.50;;;;;;8131022;28;20055;-66
2021/03/12 13:44:43;;;;;;;11.85;2.55;;;6.40;99.60;;;;;;8136616;28;20052;-65
2021/03/12 13:48:50;;;;;;;9.82;2.17;;;6.40;99.30;;;;;;8124999;28;20562;-65
2021/03/12 13:52:58;;;;;;;15.38;2.10;;;6.40;99.20;;;;;;8112222;28;20146;-64
2021/03/12 13:57:03;;;;;;;13.48;2.20;;;6.40;99.40;;;;;;8136532;28;20075;-65
2021/03/12 14:01:10;;;;;;;12.27;2.45;;;6.40;99.30;;;;;;8137366;28;20052;-65
2021/03/12 14:05:17;;;;;;;11.63;2.30;;;7.50;99.70;;;;;;8131780;28;20062;-65
2021/03/12 14:09:22;;;;;;;13.02;2.83;;;6.60;99.10;;;;;;8129476;28;20778;-68
2021/03/12 14:13:26;;;;;;;12.02;2.30;;;6.60;99.00;;;;;;8129376;28;20295;-65
2021/03/12 14:17:55;;;;;;;10.60;2.33;;;6.50;99.00;;;;;;8130853;28;20059;-65
2021/03/12 14:22:04;;;;;;;19.13;5.07;;;6.50;99.00;;;;;;8146163;28;20163;-65
2021/03/12 14:26:11;;;;;;;12.75;3.17;;;6.50;98.80;;;;;;8137777;28;20167;-64
2021/03/12 14:30:34;;;;;;;9.10;2.00;;;6.50;99.10;;;;;;8125201;28;20066;-65
2021/03/12 14:34:38;;;;;;;12.88;2.92;;;6.40;99.00;;;;;;8124579;28;20056;-64
2021/03/12 14:38:41;;;;;;;11.63;2.40;;;6.30;99.40;;;;;;8112117;28;20078;-65
2021/03/12 14:42:46;;;;;;;10.68;1.80;;;6.30;99.60;;;;;;8139133;28;20306;-66
2021/03/12 14:46:59;;;;;;;13.30;2.20;;;6.60;99.90;;;;;;8139823;28;20052;-65
2021/03/12 14:51:09;;;;;;;9.38;1.65;;;6.30;99.50;;;;;;8117567;28;20579;-65
2021/03/12 14:55:16;;;;;;;14.05;2.20;;;6.30;99.50;;;;;;8134229;29;20506;-65
2021/03/12 14:59:21;;;;;;;9.77;1.90;;;6.20;99.70;;;;;;8131045;28;20054;-65
2021/03/12 15:03:25;;;;;;;10.23;1.50;;;5.90;99.50;;;;;;8143541;28;20051;-64
2021/03/12 15:07:31;;;;;;;6.50;1.52;;;6.20;99.60;;;;;;8127641;28;20418;-65
2021/03/12 15:11:41;;;;;;;12.77;2.28;;;6.20;99.80;;;;;;8115331;28;20568;-64
2021/03/12 15:15:46;;;;;;;9.70;2.28;;;6.20;99.80;;;;;;8135768;28;20773;-65
2021/03/12 15:19:52;;;;;;;13.13;2.45;;;6.20;99.90;;;;;;8132194;28;20051;-64
2021/03/12 15:23:57;;;;;;;10.90;2.42;;;6.20;99.80;;;;;;8137423;28;20058;-65
2021/03/12 15:28:02;;;;;;;13.27;2.30;;;6.20;99.70;;;;;;8129211;29;20090;-65
2021/03/12 15:32:09;;;;;;;7.78;1.70;;;6.20;99.60;;;;;;8127621;28;20062;-65
2021/03/12 15:36:14;;;;;;;13.18;2.33;;;6.20;99.60;;;;;;8132182;29;20573;-65
2021/03/12 15:40:47;;;;;;;11.50;2.38;;;6.30;99.50;;;;;;8119593;28;20130;-65
2021/03/12 15:44:54;;;;;;;10.38;2.05;;;6.30;99.30;;;;;;8137429;28;20247;-65
2021/03/12 15:48:58;;;;;;;12.13;2.10;;;6.30;99.30;;;;;;8129557;29;20082;-65
2021/03/12 15:53:10;;;;;;;12.15;2.22;;;6.30;99.20;;;;;;8129095;28;20052;-65
2021/03/12 15:57:14;;;;;;;6.53;1.60;;;6.30;99.30;;;;;;8130548;28;20070;-65
2021/03/12 16:01:30;;;;;;;11.07;1.92;;;6.30;99.30;;;;;;8133056;28;20047;-65
2021/03/12 16:05:35;;;;;;;14.48;3.38;;;6.20;99.20;;;;;;8091225;28;20426;-65
2021/03/12 16:09:42;;;;;;;9.90;1.88;;;6.30;99.30;;;;;;8136353;28;20047;-64
2021/03/12 16:13:47;;;;;;;10.82;2.33;;;6.20;99.30;;;;;;8134920;28;20039;-65
2021/03/12 16:17:55;;;;;;;9.70;1.92;;;6.20;99.60;;;;;;8148537;28;21143;-64
2021/03/12 16:22:09;;;;;;;10.07;2.75;;;6.20;99.40;;;;;;8130753;28;20047;-65
2021/03/12 16:26:44;;;;;;;10.88;3.30;;;6.20;99.30;;;;;;8050244;28;20087;-64
2021/03/12 16:30:54;;;;;;;8.93;2.40;;;6.20;99.40;;;;;;8113433;29;20799;-64
2021/03/12 16:35:00;;;;;;;11.40;2.40;;;6.20;99.50;;;;;;8140696;29;20453;-64
2021/03/12 16:39:19;;;;;;;10.95;2.65;;;6.20;99.50;;;;;;8117849;29;20585;-65
2021/03/12 16:43:29;;;;;;;12.15;1.90;;;6.20;99.60;;;;;;8131158;29;20082;-65
2021/03/12 16:47:34;;;;;;;10.98;2.03;;;6.20;99.50;;;;;;8114303;29;20522;-64
2021/03/12 16:51:44;;;;;;;9.40;2.45;;;6.20;99.50;;;;;;8145145;28;20110;-64
2021/03/12 16:56:02;;;;;;;10.40;1.92;;;6.20;99.60;;;;;;8137546;28;20060;-64
2021/03/12 17:00:08;;;;;;;11.38;2.75;;;6.20;99.50;;;;;;8119491;28;20063;-65
2021/03/12 17:04:12;;;;;;;15.20;3.03;;;6.30;99.60;;;;;;8125953;28;20060;-65
2021/03/12 17:08:19;;;;;;;10.88;2.95;;;6.10;99.50;;;;;;8127249;28;20083;-64
2021/03/12 17:12:23;;;;;;;7.65;2.28;;;6.20;99.50;;;;;;8133031;28;20052;-65
2021/03/12 17:16:28;;;;;;;10.38;2.30;;;6.20;99.50;;;;;;8135099;28;20518;-64
2021/03/12 17:20:33;;;;;;;8.43;2.88;;;6.20;99.50;;;;;;8133411;28;20060;-64
2021/03/12 17:24:38;;;;;;;4.10;1.60;;;6.10;99.40;;;;;;8130001;28;20052;-65
2021/03/12 17:29:06;;;;;;;6.85;2.17;;;6.00;99.40;;;;;;8127654;28;20086;-65
2021/03/12 17:33:07;;;;;;;9.32;1.50;;;6.00;99.50;;;;;;8129330;28;20050;-65
2021/03/12 17:37:14;;;;;;;6.45;1.88;;;5.90;99.50;;;;;;8140505;28;20329;-64
2021/03/12 17:41:18;;;;;;;4.03;1.55;;;5.80;99.20;;;;;;8129700;28;20080;-64
2021/03/12 17:45:23;;;;;;;3.20;1.20;;;5.60;99.40;;;;;;8127761;28;20338;-64
2021/03/12 17:49:27;;;;;;;3.97;1.17;;;5.40;99.30;;;;;;8126810;28;20090;-65
2021/03/12 17:53:32;;;;;;;3.00;0.77;;;5.10;99.40;;;;;;8031005;28;3189679;-65
2021/03/12 17:57:38;;;;;;;2.03;0.60;;;5.00;99.60;;;;;;8129600;28;20153;-64
2021/03/12 18:01:44;;;;;;;3.47;0.80;;;4.80;99.60;;;;;;8146797;28;20494;-64
2021/03/12 18:05:50;;;;;;;2.42;0.70;;;4.70;99.80;;;;;;8132022;28;20077;-65
2021/03/12 18:09:54;;;;;;;3.80;0.55;;;4.70;99.80;;;;;;8144041;28;20598;-65
2021/03/12 18:13:58;;;;;;;3.53;0.90;;;4.60;99.70;;;;;;8141202;28;20295;-64
2021/03/12 18:18:03;;;;;;;2.58;0.70;;;4.50;99.70;;;;;;8130207;28;20134;-64
2021/03/12 18:22:13;;;;;;;2.88;0.90;;;4.50;99.70;;;;;;8134087;28;20066;-64
2021/03/12 18:26:18;;;;;;;4.25;0.98;;;4.40;99.70;;;;;;8114753;28;20055;-65
2021/03/12 18:30:28;;;;;;;3.05;0.80;;;4.40;99.60;;;;;;8139314;28;20107;-65
2021/03/12 18:34:33;;;;;;;2.67;0.80;;;4.40;99.60;;;;;;8131402;28;20066;-65
2021/03/12 18:38:37;;;;;;;6.13;2.15;;;4.20;99.60;;;;;;8124525;28;20060;-64
2021/03/12 18:42:47;;;;;;;3.63;0.80;;;4.30;99.60;;;;;;8135242;28;20390;-65
2021/03/12 18:46:53;;;;;;;4.43;0.93;;;4.30;99.60;;;;;;8130327;28;20083;-65
2021/03/12 18:50:58;;;;;;;4.05;1.20;;;4.20;99.50;;;;;;8129044;28;20056;-64
2021/03/12 18:55:03;;;;;;;3.40;0.80;;;4.20;99.60;;;;;;8143761;28;20425;-65
2021/03/12 18:59:09;;;;;;;3.95;1.15;;;4.30;99.60;;;;;;8135036;28;20083;-65
2021/03/12 19:03:13;;;;;;;3.65;1.35;;;4.30;99.60;;;;;;8133217;29;20063;-65
2021/03/12 19:07:18;;;;;;;3.92;1.30;;;4.30;99.50;;;;;;8132195;28;20047;-65
2021/03/12 19:11:22;;;;;;;3.90;1.67;;;4.40;99.60;;;;;;8146576;28;20055;-65
2021/03/12 19:15:27;;;;;;;4.43;1.10;;;4.40;99.60;;;;;;8128054;29;20048;-65
2021/03/12 19:19:31;;;;;;;6.00;1.30;;;4.40;99.50;;;;;;8129795;28;20078;-65
2021/03/12 19:23:41;;;;;;;7.90;1.58;;;4.40;99.50;;;;;;8120347;29;20055;-64
2021/03/12 19:28:01;;;;;;;7.85;2.00;;;4.50;99.50;;;;;;8135315;28;20075;-65
2021/03/12 19:32:08;;;;;;;9.63;2.20;;;4.50;99.50;;;;;;8145127;28;20139;-65
2021/03/12 19:36:14;;;;;;;6.40;1.80;;;4.50;99.50;;;;;;8135281;28;20111;-65
2021/03/12 19:40:22;;;;;;;20.80;2.60;;;4.50;99.50;;;;;;8132169;28;20139;-70
2021/03/12 19:44:27;;;;;;;10.25;1.98;;;4.60;99.60;;;;;;8131444;28;20079;-70
2021/03/12 19:48:34;;;;;;;10.93;1.52;;;4.60;99.60;;;;;;8101271;28;20075;-70
2021/03/12 19:52:39;;;;;;;15.00;2.80;;;4.70;99.60;;;;;;8141405;28;20262;-71
2021/03/12 19:56:43;;;;;;;14.57;2.50;;;4.70;99.60;;;;;;8083081;28;20107;-71
2021/03/12 20:00:51;;;;;;;12.70;2.08;;;4.70;99.60;;;;;;8123860;28;20356;-71
2021/03/12 20:04:55;;;;;;;11.88;2.17;;;4.70;99.50;;;;;;8119185;28;20347;-71
2021/03/12 20:08:59;;;;;;;16.20;2.97;;;4.70;99.60;;;;;;8126284;28;20051;-71
2021/03/12 20:13:07;;;;;;;19.85;2.90;;;4.70;99.70;;;;;;8127105;28;20047;-70
2021/03/12 20:17:14;;;;;;;12.23;2.63;;;4.70;99.70;;;;;;8115219;28;20388;-70
2021/03/12 20:21:23;;;;;;;19.08;3.08;;;4.70;99.90;;;;;;8119482;28;20055;-70
2021/03/12 20:25:27;;;;;;;22.00;3.33;;;4.70;99.90;;;;;;8122105;28;20062;-70
2021/03/12 20:29:33;;;;;;;14.40;2.30;;;4.70;99.90;;;;;;8144734;28;20059;-70
2021/03/12 20:33:39;;;;;;;15.98;2.33;;;4.70;99.90;;;;;;8101456;28;20522;-71
2021/03/12 20:37:52;;;;;;;9.88;1.95;;;4.70;99.90;;;;;;8099551;28;20047;-70
2021/03/12 20:41:56;;;;;;;14.88;2.60;;;4.70;99.90;;;;;;8121907;28;20063;-70
2021/03/12 20:46:03;;;;;;;12.70;2.90;;;4.70;99.90;;;;;;8099089;28;20503;-70
2021/03/12 20:50:10;;;;;;;20.13;4.25;;;4.70;99.90;;;;;;8123324;28;20487;-71
2021/03/12 20:54:16;;;;;;;18.55;3.22;;;4.70;99.90;;;;;;8099171;28;20508;-69
2021/03/12 20:58:18;;;;;;;20.30;3.78;;;5.00;99.90;;;;;;8114970;29;20107;-70
2021/03/12 21:02:25;;;;;;;17.25;3.45;;;4.70;99.90;;;;;;8118046;28;20898;-69
2021/03/12 21:06:34;;;;;;;18.45;3.88;;;4.70;99.90;;;;;;8113531;29;20126;-70
2021/03/12 21:10:38;;;;;;;14.23;2.55;;;4.70;99.90;;;;;;8112309;28;20286;-69
2021/03/12 21:14:43;;;;;;;13.57;2.40;;;4.70;99.90;;;;;;8108593;29;20378;-70
2021/03/12 21:18:50;;;;;;;8.73;2.10;;;4.60;99.90;;;;;;8119325;28;20514;-70
2021/03/12 21:22:56;;;;;;;11.00;1.95;;;4.70;99.90;;;;;;8114614;28;20055;-70
2021/03/12 21:27:00;;;;;;;8.30;2.55;;;4.70;99.90;;;;;;8129336;28;20564;-70
2021/03/12 21:31:05;;;;;;;7.35;1.75;;;4.70;99.90;;;;;;8115427;28;20091;-70
2021/03/12 21:35:12;;;;;;;6.63;1.75;;;4.70;99.90;;;;;;8106175;28;20432;-71
2021/03/12 21:39:17;;;;;;;8.18;2.58;;;4.70;99.90;;;;;;8134496;28;20051;-71
2021/03/12 21:43:22;;;;;;;11.80;4.38;;;4.70;99.90;;;;;;8113771;28;20118;-71